sensor_id;sensor_type;location;lat;lon;timestamp;pressure;altitude;pressure_sealevel;temperature;humidity
42887;BME280;29032;56.028;92.904;2023-06-14T00:03:41;98980.38;;;13.93;62.45
42887;BME280;29032;56.028;92.904;2023-06-14T00:08:43;98988.75;;;13.93;61.89
42887;BME280;29032;56.028;92.904;2023-06-14T00:13:45;98995.44;;;13.90;62.62
42887;BME280;29032;56.028;92.904;2023-06-14T00:18:49;98992.09;;;13.99;61.88
42887;BME280;29032;56.028;92.904;2023-06-14T00:23:51;98990.25;;;13.94;62.39
42887;BME280;29032;56.028;92.904;2023-06-14T00:28:53;98969.56;;;13.82;59.49
42887;BME280;29032;56.028;92.904;2023-06-14T00:33:56;98982.78;;;13.89;58.77
42887;BME280;29032;56.028;92.904;2023-06-14T00:38:58;98971.22;;;13.70;60.90
42887;BME280;29032;56.028;92.904;2023-06-14T00:44:00;98958.56;;;13.69;57.34
42887;BME280;29032;56.028;92.904;2023-06-14T00:49:04;98977.53;;;13.70;56.68
42887;BME280;29032;56.028;92.904;2023-06-14T00:54:07;98982.69;;;13.59;56.90
42887;BME280;29032;56.028;92.904;2023-06-14T00:59:09;98980.81;;;13.46;60.11
42887;BME280;29032;56.028;92.904;2023-06-14T01:04:12;98977.47;;;13.47;58.25
42887;BME280;29032;56.028;92.904;2023-06-14T01:09:34;98997.22;;;13.65;58.48
42887;BME280;29032;56.028;92.904;2023-06-14T01:14:39;99014.28;;;13.53;58.56
42887;BME280;29032;56.028;92.904;2023-06-14T01:19:45;99026.56;;;13.58;60.78
42887;BME280;29032;56.028;92.904;2023-06-14T01:25:07;99045.91;;;13.64;58.39
42887;BME280;29032;56.028;92.904;2023-06-14T01:30:11;99026.22;;;13.62;61.16
42887;BME280;29032;56.028;92.904;2023-06-14T01:35:15;99033.28;;;13.63;60.92
42887;BME280;29032;56.028;92.904;2023-06-14T01:40:38;99038.50;;;13.66;61.09
42887;BME280;29032;56.028;92.904;2023-06-14T01:46:00;99038.13;;;13.62;59.68
42887;BME280;29032;56.028;92.904;2023-06-14T01:51:03;99038.28;;;13.56;62.04
42887;BME280;29032;56.028;92.904;2023-06-14T01:56:06;99043.13;;;13.64;59.84
42887;BME280;29032;56.028;92.904;2023-06-14T02:01:09;99036.47;;;13.67;60.22
42887;BME280;29032;56.028;92.904;2023-06-14T02:06:11;99056.16;;;13.69;59.42
42887;BME280;29032;56.028;92.904;2023-06-14T02:11:14;99048.00;;;13.71;60.93
42887;BME280;29032;56.028;92.904;2023-06-14T02:16:16;99043.69;;;13.62;61.06
42887;BME280;29032;56.028;92.904;2023-06-14T02:21:18;99030.09;;;13.59;60.19
42887;BME280;29032;56.028;92.904;2023-06-14T02:26:23;99007.25;;;13.60;60.58
42887;BME280;29032;56.028;92.904;2023-06-14T02:31:25;99019.66;;;13.51;59.91
42887;BME280;29032;56.028;92.904;2023-06-14T02:36:27;99054.63;;;13.52;60.61
42887;BME280;29032;56.028;92.904;2023-06-14T02:41:31;99070.63;;;13.60;60.68
42887;BME280;29032;56.028;92.904;2023-06-14T02:46:33;99066.34;;;13.59;60.88
42887;BME280;29032;56.028;92.904;2023-06-14T02:51:35;99046.25;;;13.52;60.55
42887;BME280;29032;56.028;92.904;2023-06-14T02:56:39;99028.03;;;13.51;59.42
42887;BME280;29032;56.028;92.904;2023-06-14T03:01:41;99012.69;;;13.37;59.79
42887;BME280;29032;56.028;92.904;2023-06-14T03:06:46;99028.13;;;13.38;60.33
42887;BME280;29032;56.028;92.904;2023-06-14T03:11:50;99027.78;;;13.42;60.22
42887;BME280;29032;56.028;92.904;2023-06-14T03:16:53;99060.06;;;13.37;59.48
42887;BME280;29032;56.028;92.904;2023-06-14T03:21:55;99065.50;;;13.43;60.10
42887;BME280;29032;56.028;92.904;2023-06-14T03:26:58;99070.00;;;13.46;59.96
42887;BME280;29032;56.028;92.904;2023-06-14T03:32:03;99069.03;;;13.79;57.67
42887;BME280;29032;56.028;92.904;2023-06-14T03:37:14;99060.75;;;13.59;60.18
42887;BME280;29032;56.028;92.904;2023-06-14T03:42:18;99029.78;;;13.70;59.68
42887;BME280;29032;56.028;92.904;2023-06-14T03:47:38;99040.03;;;13.75;58.69
42887;BME280;29032;56.028;92.904;2023-06-14T03:52:40;99056.19;;;13.76;58.90
42887;BME280;29032;56.028;92.904;2023-06-14T03:57:44;99067.19;;;13.82;57.75
42887;BME280;29032;56.028;92.904;2023-06-14T04:02:49;99074.59;;;13.79;58.98
42887;BME280;29032;56.028;92.904;2023-06-14T04:07:51;99079.84;;;13.83;57.73
42887;BME280;29032;56.028;92.904;2023-06-14T04:12:55;99092.16;;;13.95;57.57
42887;BME280;29032;56.028;92.904;2023-06-14T04:23:18;99110.72;;;13.93;58.92
42887;BME280;29032;56.028;92.904;2023-06-14T04:28:22;99128.53;;;13.82;60.15
42887;BME280;29032;56.028;92.904;2023-06-14T04:33:25;99095.41;;;13.71;58.75
42887;BME280;29032;56.028;92.904;2023-06-14T04:38:28;99107.25;;;13.64;59.62
42887;BME280;29032;56.028;92.904;2023-06-14T04:43:33;99097.09;;;13.74;58.24
42887;BME280;29032;56.028;92.904;2023-06-14T04:48:35;99090.59;;;13.79;58.51
42887;BME280;29032;56.028;92.904;2023-06-14T04:53:56;99063.56;;;14.10;58.47
42887;BME280;29032;56.028;92.904;2023-06-14T04:59:01;99072.50;;;14.16;57.75
42887;BME280;29032;56.028;92.904;2023-06-14T05:04:22;99092.41;;;14.28;57.15
42887;BME280;29032;56.028;92.904;2023-06-14T05:09:45;99107.13;;;14.36;56.17
42887;BME280;29032;56.028;92.904;2023-06-14T05:14:49;99099.09;;;14.17;52.28
42887;BME280;29032;56.028;92.904;2023-06-14T05:19:54;99097.38;;;14.06;53.73
42887;BME280;29032;56.028;92.904;2023-06-14T05:24:56;99097.25;;;14.20;55.05
42887;BME280;29032;56.028;92.904;2023-06-14T05:30:00;99093.00;;;14.49;55.80
42887;BME280;29032;56.028;92.904;2023-06-14T05:35:02;99104.63;;;14.76;55.07
42887;BME280;29032;56.028;92.904;2023-06-14T05:40:05;99112.25;;;14.83;53.22
42887;BME280;29032;56.028;92.904;2023-06-14T05:50:29;99134.03;;;14.85;49.71
42887;BME280;29032;56.028;92.904;2023-06-14T05:55:31;99140.00;;;14.89;46.90
42887;BME280;29032;56.028;92.904;2023-06-14T06:00:35;99169.06;;;14.86;47.60
42887;BME280;29032;56.028;92.904;2023-06-14T06:05:55;99144.84;;;14.96;48.17
42887;BME280;29032;56.028;92.904;2023-06-14T06:10:57;99162.53;;;15.06;46.09
42887;BME280;29032;56.028;92.904;2023-06-14T06:16:19;99157.13;;;15.31;46.50
42887;BME280;29032;56.028;92.904;2023-06-14T06:21:21;99161.53;;;15.80;44.45
42887;BME280;29032;56.028;92.904;2023-06-14T06:26:23;99148.91;;;15.71;43.63
42887;BME280;29032;56.028;92.904;2023-06-14T06:31:45;99153.22;;;16.13;43.95
42887;BME280;29032;56.028;92.904;2023-06-14T06:36:47;99149.78;;;16.29;42.72
42887;BME280;29032;56.028;92.904;2023-06-14T06:41:49;99158.44;;;16.16;41.70
42887;BME280;29032;56.028;92.904;2023-06-14T06:47:04;99155.78;;;16.18;40.45
42887;BME280;29032;56.028;92.904;2023-06-14T06:52:07;99155.81;;;16.11;41.98
42887;BME280;29032;56.028;92.904;2023-06-14T06:57:09;99153.22;;;16.05;42.92
42887;BME280;29032;56.028;92.904;2023-06-14T07:02:12;99171.34;;;16.04;41.69
42887;BME280;29032;56.028;92.904;2023-06-14T07:07:15;99181.50;;;15.77;42.31
42887;BME280;29032;56.028;92.904;2023-06-14T07:12:17;99175.56;;;15.50;41.60
42887;BME280;29032;56.028;92.904;2023-06-14T07:17:20;99176.13;;;15.48;43.21
42887;BME280;29032;56.028;92.904;2023-06-14T07:22:22;99174.44;;;15.60;42.54
42887;BME280;29032;56.028;92.904;2023-06-14T07:27:25;99176.13;;;15.63;41.46
42887;BME280;29032;56.028;92.904;2023-06-14T07:32:28;99185.06;;;15.69;40.29
42887;BME280;29032;56.028;92.904;2023-06-14T07:37:30;99185.78;;;15.62;40.88
42887;BME280;29032;56.028;92.904;2023-06-14T07:42:33;99185.63;;;15.60;42.54
42887;BME280;29032;56.028;92.904;2023-06-14T07:47:38;99187.09;;;15.61;44.63
42887;BME280;29032;56.028;92.904;2023-06-14T07:52:40;99232.44;;;15.75;42.38
42887;BME280;29032;56.028;92.904;2023-06-14T07:57:42;99211.50;;;15.84;41.17
42887;BME280;29032;56.028;92.904;2023-06-14T08:02:46;99199.03;;;15.85;40.90
42887;BME280;29032;56.028;92.904;2023-06-14T08:07:48;99201.47;;;15.81;40.87
42887;BME280;29032;56.028;92.904;2023-06-14T08:13:09;99206.41;;;16.05;40.88
42887;BME280;29032;56.028;92.904;2023-06-14T08:18:12;99199.50;;;16.14;40.59
42887;BME280;29032;56.028;92.904;2023-06-14T08:23:14;99211.13;;;15.95;39.17
42887;BME280;29032;56.028;92.904;2023-06-14T08:28:16;99211.88;;;15.88;38.78
42887;BME280;29032;56.028;92.904;2023-06-14T08:33:20;99213.31;;;16.04;37.93
42887;BME280;29032;56.028;92.904;2023-06-14T08:38:22;99226.94;;;16.15;37.92
42887;BME280;29032;56.028;92.904;2023-06-14T08:43:42;99233.03;;;16.29;38.66
42887;BME280;29032;56.028;92.904;2023-06-14T08:48:46;99234.69;;;16.32;37.85
42887;BME280;29032;56.028;92.904;2023-06-14T08:54:25;99244.25;;;17.02;37.10
42887;BME280;29032;56.028;92.904;2023-06-14T08:59:28;99239.41;;;17.27;35.92
42887;BME280;29032;56.028;92.904;2023-06-14T09:04:32;99239.72;;;17.81;33.96
42887;BME280;29032;56.028;92.904;2023-06-14T09:10:04;99256.41;;;18.14;32.92
42887;BME280;29032;56.028;92.904;2023-06-14T09:15:07;99257.91;;;17.98;34.40
42887;BME280;29032;56.028;92.904;2023-06-14T09:20:12;99259.97;;;17.97;35.44
42887;BME280;29032;56.028;92.904;2023-06-14T09:25:14;99295.72;;;18.14;35.17
42887;BME280;29032;56.028;92.904;2023-06-14T09:30:16;99281.22;;;18.25;35.00
42887;BME280;29032;56.028;92.904;2023-06-14T09:35:23;99292.59;;;18.44;34.24
42887;BME280;29032;56.028;92.904;2023-06-14T09:40:26;99318.59;;;18.45;33.83
42887;BME280;29032;56.028;92.904;2023-06-14T09:45:28;99319.69;;;18.15;33.60
42887;BME280;29032;56.028;92.904;2023-06-14T09:50:31;99319.00;;;17.89;34.32
42887;BME280;29032;56.028;92.904;2023-06-14T09:55:35;99327.88;;;17.78;34.64
42887;BME280;29032;56.028;92.904;2023-06-14T10:00:40;99344.16;;;17.80;32.61
42887;BME280;29032;56.028;92.904;2023-06-14T10:05:47;99343.63;;;17.99;32.90
42887;BME280;29032;56.028;92.904;2023-06-14T10:10:49;99348.56;;;18.08;33.13
42887;BME280;29032;56.028;92.904;2023-06-14T10:15:57;99367.63;;;18.17;33.11
42887;BME280;29032;56.028;92.904;2023-06-14T10:21:08;99372.22;;;18.05;31.58
42887;BME280;29032;56.028;92.904;2023-06-14T10:26:20;99383.63;;;17.82;30.87
42887;BME280;29032;56.028;92.904;2023-06-14T10:31:44;99390.06;;;17.67;30.85
42887;BME280;29032;56.028;92.904;2023-06-14T10:42:22;99394.72;;;17.72;30.73
42887;BME280;29032;56.028;92.904;2023-06-14T10:48:05;99410.84;;;17.97;31.72
42887;BME280;29032;56.028;92.904;2023-06-14T10:53:23;99425.47;;;17.87;31.49
42887;BME280;29032;56.028;92.904;2023-06-14T10:58:25;99418.13;;;17.67;30.25
42887;BME280;29032;56.028;92.904;2023-06-14T11:03:49;99431.91;;;17.80;31.65
42887;BME280;29032;56.028;92.904;2023-06-14T11:09:31;99431.91;;;17.80;31.42
42887;BME280;29032;56.028;92.904;2023-06-14T11:14:39;99438.47;;;17.43;30.74
42887;BME280;29032;56.028;92.904;2023-06-14T11:19:41;99447.53;;;17.18;31.45
42887;BME280;29032;56.028;92.904;2023-06-14T11:24:44;99444.94;;;17.20;31.80
42887;BME280;29032;56.028;92.904;2023-06-14T11:29:49;99444.69;;;17.33;31.13
42887;BME280;29032;56.028;92.904;2023-06-14T11:34:52;99455.56;;;17.22;30.39
42887;BME280;29032;56.028;92.904;2023-06-14T11:39:57;99466.66;;;16.97;30.70
42887;BME280;29032;56.028;92.904;2023-06-14T11:45:00;99469.34;;;16.79;30.92
42887;BME280;29032;56.028;92.904;2023-06-14T11:50:21;99461.81;;;17.05;31.41
42887;BME280;29032;56.028;92.904;2023-06-14T11:55:44;99457.31;;;17.02;31.00
42887;BME280;29032;56.028;92.904;2023-06-14T12:00:49;99451.41;;;16.90;30.67
42887;BME280;29032;56.028;92.904;2023-06-14T12:06:01;99458.13;;;16.79;30.66
42887;BME280;29032;56.028;92.904;2023-06-14T12:11:05;99465.25;;;16.73;31.33
42887;BME280;29032;56.028;92.904;2023-06-14T12:16:09;99462.03;;;16.69;31.22
42887;BME280;29032;56.028;92.904;2023-06-14T12:21:12;99472.31;;;16.66;32.10
42887;BME280;29032;56.028;92.904;2023-06-14T12:26:17;99472.31;;;16.66;32.43
42887;BME280;29032;56.028;92.904;2023-06-14T12:31:19;99486.16;;;16.64;31.99
42887;BME280;29032;56.028;92.904;2023-06-14T12:36:21;99477.56;;;16.62;32.28
42887;BME280;29032;56.028;92.904;2023-06-14T12:41:25;99485.03;;;16.67;33.95
42887;BME280;29032;56.028;92.904;2023-06-14T12:51:47;99505.97;;;16.51;32.43
42887;BME280;29032;56.028;92.904;2023-06-14T12:56:50;99504.09;;;16.53;32.73
42887;BME280;29032;56.028;92.904;2023-06-14T13:01:53;99509.13;;;16.47;32.32
42887;BME280;29032;56.028;92.904;2023-06-14T13:07:13;99514.72;;;16.32;32.39
42887;BME280;29032;56.028;92.904;2023-06-14T13:12:17;99527.97;;;16.24;32.79
42887;BME280;29032;56.028;92.904;2023-06-14T13:17:37;99532.25;;;16.17;32.96
42887;BME280;29032;56.028;92.904;2023-06-14T13:22:39;99529.84;;;16.14;33.07
42887;BME280;29032;56.028;92.904;2023-06-14T13:28:01;99528.72;;;16.24;33.74
42887;BME280;29032;56.028;92.904;2023-06-14T13:33:03;99533.91;;;16.05;34.58
42887;BME280;29032;56.028;92.904;2023-06-14T13:38:05;99541.94;;;16.01;33.73
42887;BME280;29032;56.028;92.904;2023-06-14T13:43:09;99552.94;;;15.99;34.98
42887;BME280;29032;56.028;92.904;2023-06-14T13:48:11;99553.28;;;15.88;35.47
42887;BME280;29032;56.028;92.904;2023-06-14T13:53:13;99554.41;;;15.85;35.48
42887;BME280;29032;56.028;92.904;2023-06-14T13:58:35;99551.94;;;15.73;36.79
42887;BME280;29032;56.028;92.904;2023-06-14T14:03:37;99555.53;;;15.53;38.93
42887;BME280;29032;56.028;92.904;2023-06-14T14:14:01;99573.25;;;15.19;39.58
42887;BME280;29032;56.028;92.904;2023-06-14T14:19:03;99576.84;;;14.99;41.17
42887;BME280;29032;56.028;92.904;2023-06-14T14:24:05;99564.97;;;14.78;41.53
42887;BME280;29032;56.028;92.904;2023-06-14T14:29:09;99571.91;;;14.63;42.89
42887;BME280;29032;56.028;92.904;2023-06-14T14:34:11;99582.31;;;14.42;42.67
42887;BME280;29032;56.028;92.904;2023-06-14T14:39:13;99585.72;;;14.27;43.98
42887;BME280;29032;56.028;92.904;2023-06-14T14:44:17;99584.56;;;14.23;43.66
42887;BME280;29032;56.028;92.904;2023-06-14T14:49:19;99580.22;;;14.01;43.87
42887;BME280;29032;56.028;92.904;2023-06-14T14:54:21;99602.13;;;13.97;45.18
42887;BME280;29032;56.028;92.904;2023-06-14T14:59:24;99608.78;;;13.94;44.84
42887;BME280;29032;56.028;92.904;2023-06-14T15:04:29;99611.38;;;14.26;41.93
42887;BME280;29032;56.028;92.904;2023-06-14T15:09:31;99606.56;;;13.66;44.82
42887;BME280;29032;56.028;92.904;2023-06-14T15:14:34;99616.13;;;13.57;46.49
42887;BME280;29032;56.028;92.904;2023-06-14T15:19:36;99617.13;;;13.46;46.57
42887;BME280;29032;56.028;92.904;2023-06-14T15:24:38;99626.75;;;13.45;46.53
42887;BME280;29032;56.028;92.904;2023-06-14T15:29:43;99625.69;;;13.48;46.43
42887;BME280;29032;56.028;92.904;2023-06-14T15:34:49;99623.31;;;13.39;46.99
42887;BME280;29032;56.028;92.904;2023-06-14T15:39:51;99620.53;;;13.39;45.42
42887;BME280;29032;56.028;92.904;2023-06-14T15:44:54;99624.38;;;13.36;47.08
42887;BME280;29032;56.028;92.904;2023-06-14T15:49:57;99625.75;;;13.29;46.33
42887;BME280;29032;56.028;92.904;2023-06-14T15:54:59;99618.78;;;13.36;45.06
42887;BME280;29032;56.028;92.904;2023-06-14T16:00:03;99618.91;;;13.44;46.59
42887;BME280;29032;56.028;92.904;2023-06-14T16:05:07;99618.91;;;13.44;46.70
42887;BME280;29032;56.028;92.904;2023-06-14T16:10:09;99607.47;;;13.47;45.36
42887;BME280;29032;56.028;92.904;2023-06-14T16:15:13;99604.56;;;13.53;44.07
42887;BME280;29032;56.028;92.904;2023-06-14T16:20:17;99604.13;;;13.49;44.15
42887;BME280;29032;56.028;92.904;2023-06-14T16:25:20;99611.53;;;13.46;44.12
42887;BME280;29032;56.028;92.904;2023-06-14T16:30:23;99621.69;;;13.44;44.23
42887;BME280;29032;56.028;92.904;2023-06-14T16:35:43;99612.41;;;13.54;44.01
42887;BME280;29032;56.028;92.904;2023-06-14T16:41:04;99610.53;;;13.30;44.73
42887;BME280;29032;56.028;92.904;2023-06-14T16:51:28;99607.44;;;13.21;44.99
42887;BME280;29032;56.028;92.904;2023-06-14T16:56:30;99613.44;;;13.12;45.46
42887;BME280;29032;56.028;92.904;2023-06-14T17:01:34;99610.75;;;13.06;45.48
42887;BME280;29032;56.028;92.904;2023-06-14T17:06:36;99613.72;;;12.95;45.97
42887;BME280;29032;56.028;92.904;2023-06-14T17:11:39;99613.38;;;12.85;46.05
42887;BME280;29032;56.028;92.904;2023-06-14T17:17:01;99611.69;;;12.95;45.33
42887;BME280;29032;56.028;92.904;2023-06-14T17:22:04;99606.28;;;12.71;46.55
42887;BME280;29032;56.028;92.904;2023-06-14T17:27:06;99607.66;;;12.64;46.54
42887;BME280;29032;56.028;92.904;2023-06-14T17:32:10;99603.91;;;12.62;46.88
42887;BME280;29032;56.028;92.904;2023-06-14T17:37:12;99613.94;;;12.52;47.11
42887;BME280;29032;56.028;92.904;2023-06-14T17:42:14;99613.56;;;12.42;47.51
42887;BME280;29032;56.028;92.904;2023-06-14T17:47:17;99620.50;;;12.35;47.16
42887;BME280;29032;56.028;92.904;2023-06-14T17:52:21;99624.13;;;12.30;47.72
42887;BME280;29032;56.028;92.904;2023-06-14T17:57:29;99618.13;;;12.26;47.59
42887;BME280;29032;56.028;92.904;2023-06-14T18:07:53;99612.00;;;12.09;47.71
42887;BME280;29032;56.028;92.904;2023-06-14T18:18:16;99615.16;;;12.00;48.93
42887;BME280;29032;56.028;92.904;2023-06-14T18:23:18;99614.28;;;11.91;48.53
42887;BME280;29032;56.028;92.904;2023-06-14T18:28:20;99624.03;;;11.79;49.44
42887;BME280;29032;56.028;92.904;2023-06-14T18:33:42;99615.03;;;11.92;48.37
42887;BME280;29032;56.028;92.904;2023-06-14T18:38:44;99610.03;;;11.66;48.57
42887;BME280;29032;56.028;92.904;2023-06-14T18:44:04;99610.84;;;11.61;49.53
42887;BME280;29032;56.028;92.904;2023-06-14T18:49:08;99606.56;;;11.60;49.71
42887;BME280;29032;56.028;92.904;2023-06-14T18:54:10;99602.72;;;11.44;49.23
42887;BME280;29032;56.028;92.904;2023-06-14T18:59:12;99597.81;;;11.31;49.88
42887;BME280;29032;56.028;92.904;2023-06-14T19:04:15;99594.63;;;11.22;50.14
42887;BME280;29032;56.028;92.904;2023-06-14T19:09:17;99602.44;;;10.99;50.33
42887;BME280;29032;56.028;92.904;2023-06-14T19:14:38;99599.72;;;10.93;51.11
42887;BME280;29032;56.028;92.904;2023-06-14T19:25:20;99600.34;;;11.05;49.64
42887;BME280;29032;56.028;92.904;2023-06-14T19:30:22;99584.38;;;10.87;50.94
42887;BME280;29032;56.028;92.904;2023-06-14T19:35:25;99578.03;;;10.92;51.37
42887;BME280;29032;56.028;92.904;2023-06-14T19:40:27;99575.75;;;10.90;50.84
42887;BME280;29032;56.028;92.904;2023-06-14T19:45:30;99588.66;;;10.88;50.93
42887;BME280;29032;56.028;92.904;2023-06-14T19:50:33;99587.94;;;10.81;51.05
42887;BME280;29032;56.028;92.904;2023-06-14T19:55:35;99586.06;;;10.65;51.33
42887;BME280;29032;56.028;92.904;2023-06-14T20:00:40;99586.06;;;10.65;51.57
42887;BME280;29032;56.028;92.904;2023-06-14T20:11:04;99585.53;;;10.67;51.55
42887;BME280;29032;56.028;92.904;2023-06-14T20:16:06;99584.78;;;10.66;51.58
42887;BME280;29032;56.028;92.904;2023-06-14T20:21:09;99586.59;;;10.64;51.30
42887;BME280;29032;56.028;92.904;2023-06-14T20:26:12;99583.63;;;10.56;51.75
42887;BME280;29032;56.028;92.904;2023-06-14T20:31:14;99580.59;;;10.54;51.74
42887;BME280;29032;56.028;92.904;2023-06-14T20:36:36;99584.97;;;10.74;51.11
42887;BME280;29032;56.028;92.904;2023-06-14T20:41:38;99576.53;;;10.55;51.55
42887;BME280;29032;56.028;92.904;2023-06-14T20:46:40;99579.13;;;10.47;52.19
42887;BME280;29032;56.028;92.904;2023-06-14T20:52:02;99577.66;;;10.41;52.53
42887;BME280;29032;56.028;92.904;2023-06-14T20:57:05;99583.03;;;10.33;52.11
42887;BME280;29032;56.028;92.904;2023-06-14T21:02:07;99580.78;;;10.32;52.61
42887;BME280;29032;56.028;92.904;2023-06-14T21:07:12;99581.25;;;10.36;52.73
42887;BME280;29032;56.028;92.904;2023-06-14T21:12:14;99578.50;;;10.30;52.73
42887;BME280;29032;56.028;92.904;2023-06-14T21:17:16;99576.50;;;10.31;52.64
42887;BME280;29032;56.028;92.904;2023-06-14T21:27:58;99566.91;;;10.32;52.56
42887;BME280;29032;56.028;92.904;2023-06-14T21:33:01;99567.69;;;10.26;52.45
42887;BME280;29032;56.028;92.904;2023-06-14T21:38:04;99565.44;;;10.25;52.80
42887;BME280;29032;56.028;92.904;2023-06-14T21:48:27;99552.84;;;10.24;52.70
42887;BME280;29032;56.028;92.904;2023-06-14T21:53:30;99555.56;;;10.30;52.88
42887;BME280;29032;56.028;92.904;2023-06-14T21:58:33;99553.31;;;10.28;52.43
42887;BME280;29032;56.028;92.904;2023-06-14T22:03:35;99555.84;;;10.26;52.38
42887;BME280;29032;56.028;92.904;2023-06-14T22:08:38;99546.75;;;10.25;52.73
42887;BME280;29032;56.028;92.904;2023-06-14T22:13:40;99548.56;;;10.23;52.88
42887;BME280;29032;56.028;92.904;2023-06-14T22:18:42;99549.53;;;10.25;52.75
42887;BME280;29032;56.028;92.904;2023-06-14T22:23:46;99541.44;;;10.27;52.77
42887;BME280;29032;56.028;92.904;2023-06-14T22:29:06;99543.91;;;10.37;52.14
42887;BME280;29032;56.028;92.904;2023-06-14T22:34:08;99542.31;;;10.17;53.37
42887;BME280;29032;56.028;92.904;2023-06-14T22:44:33;99539.34;;;10.09;53.50
42887;BME280;29032;56.028;92.904;2023-06-14T22:49:53;99541.75;;;10.24;53.00
42887;BME280;29032;56.028;92.904;2023-06-14T22:54:57;99539.00;;;10.18;54.01
42887;BME280;29032;56.028;92.904;2023-06-14T23:00:36;99545.41;;;10.38;53.33
42887;BME280;29032;56.028;92.904;2023-06-14T23:05:38;99545.97;;;10.31;53.22
42887;BME280;29032;56.028;92.904;2023-06-14T23:10:41;99538.38;;;10.37;54.00
42887;BME280;29032;56.028;92.904;2023-06-14T23:15:43;99536.56;;;10.39;53.67
42887;BME280;29032;56.028;92.904;2023-06-14T23:20:46;99542.31;;;10.47;53.75
42887;BME280;29032;56.028;92.904;2023-06-14T23:25:49;99541.19;;;10.61;53.47
42887;BME280;29032;56.028;92.904;2023-06-14T23:30:51;99534.59;;;10.64;53.14
42887;BME280;29032;56.028;92.904;2023-06-14T23:35:53;99534.81;;;10.66;53.02
42887;BME280;29032;56.028;92.904;2023-06-14T23:46:36;99529.19;;;11.02;52.13
42887;BME280;29032;56.028;92.904;2023-06-14T23:51:38;99522.16;;;11.01;53.13
42887;BME280;29032;56.028;92.904;2023-06-14T23:56:43;99522.47;;;11.16;52.85
